Time;durP1;ratioP1;P1;durP2;ratioP2;P2;SDS_P1;SDS_P2;PMS_P1;PMS_P2;Temp;Humidity;BMP_temperature;BMP_pressure;BME280_temperature;BME280_humidity;BME280_pressure;Samples;Min_cycle;Max_cycle;Signal;HPM_P1;HPM_P2
2022/05/01 00:01:17;;;;;;;20.60;14.07;;;6.10;99.90;;;;;;5037338;28;20366;-70
2022/05/01 00:03:42;;;;;;;18.98;13.57;;;6.10;99.90;;;;;;5037003;28;20046;-70
2022/05/01 00:06:10;;;;;;;19.05;12.98;;;6.00;99.90;;;;;;5020005;28;20045;-70
2022/05/01 00:08:40;;;;;;;19.35;13.90;;;6.00;99.90;;;;;;5037286;28;20049;-70
2022/05/01 00:11:08;;;;;;;18.13;13.98;;;6.00;99.90;;;;;;5037348;28;20363;-71
2022/05/01 00:13:34;;;;;;;19.40;13.07;;;5.90;99.90;;;;;;5036590;28;20129;-70
2022/05/01 00:15:59;;;;;;;18.70;13.00;;;5.90;99.90;;;;;;5037343;28;20358;-70
2022/05/01 00:18:25;;;;;;;16.80;12.48;;;5.80;99.90;;;;;;5037104;28;20056;-70
2022/05/01 00:20:51;;;;;;;17.00;12.25;;;5.80;99.90;;;;;;5036901;28;20073;-70
2022/05/01 00:23:18;;;;;;;18.67;13.82;;;5.80;99.90;;;;;;5036793;28;20053;-71
2022/05/01 00:25:45;;;;;;;18.13;13.65;;;5.80;99.90;;;;;;5036855;28;20056;-71
2022/05/01 00:28:14;;;;;;;19.20;14.80;;;5.70;99.90;;;;;;5037124;28;20037;-70
2022/05/01 00:30:41;;;;;;;16.58;13.30;;;5.70;99.90;;;;;;5036747;28;20049;-70
2022/05/01 00:38:37;;;;;;;22.98;14.07;;;5.60;99.90;;;;;;5035927;28;20053;-71
2022/05/01 00:41:07;;;;;;;19.83;13.90;;;5.60;99.90;;;;;;5019646;28;20057;-71
2022/05/01 00:43:33;;;;;;;19.92;15.25;;;5.60;99.90;;;;;;5036400;28;20045;-71
2022/05/01 00:45:58;;;;;;;22.17;15.20;;;5.50;99.90;;;;;;5036586;28;20041;-71
2022/05/01 00:48:24;;;;;;;17.45;13.80;;;5.40;99.90;;;;;;5036605;28;20057;-71
2022/05/01 00:50:52;;;;;;;19.13;14.57;;;5.40;99.90;;;;;;5036386;28;20056;-71
2022/05/01 00:53:18;;;;;;;17.55;13.55;;;5.30;99.90;;;;;;5035773;28;20408;-71
2022/05/01 00:55:44;;;;;;;19.27;14.27;;;5.30;99.90;;;;;;5001156;28;20053;-71
2022/05/01 00:58:09;;;;;;;16.90;13.77;;;5.20;99.90;;;;;;5036389;28;20049;-70
2022/05/01 01:00:35;;;;;;;18.80;12.27;;;5.20;99.90;;;;;;5036290;28;20424;-70
2022/05/01 01:03:01;;;;;;;19.38;13.35;;;5.10;99.90;;;;;;5035703;28;20037;-71
2022/05/01 01:05:27;;;;;;;22.42;14.65;;;5.00;99.90;;;;;;5018828;28;20049;-70
2022/05/01 01:07:53;;;;;;;18.45;14.32;;;5.00;99.90;;;;;;5035980;28;20141;-70
2022/05/01 01:10:19;;;;;;;19.45;14.00;;;4.90;99.90;;;;;;5035945;28;20052;-70
2022/05/01 01:12:54;;;;;;;19.33;14.43;;;4.90;99.90;;;;;;5035806;28;20041;-70
2022/05/01 01:15:31;;;;;;;17.13;13.32;;;4.80;99.90;;;;;;5035933;28;20049;-70
2022/05/01 01:17:58;;;;;;;22.52;14.77;;;4.80;99.90;;;;;;5035722;28;20041;-71
2022/05/01 01:20:28;;;;;;;21.35;13.45;;;4.80;99.90;;;;;;5035515;28;20111;-70
2022/05/01 01:22:56;;;;;;;18.90;14.55;;;5.00;99.90;;;;;;5035510;28;20081;-70
2022/05/01 01:25:32;;;;;;;17.92;13.70;;;4.70;99.90;;;;;;5036033;28;20057;-71
2022/05/01 01:28:03;;;;;;;19.27;13.25;;;4.60;99.90;;;;;;5035805;28;20359;-71
2022/05/01 01:33:17;;;;;;;21.63;14.80;;;4.50;99.90;;;;;;5034647;28;20474;-70
2022/05/01 01:35:45;;;;;;;22.17;14.88;;;4.50;99.90;;;;;;5018058;28;20042;-70
2022/05/01 01:38:11;;;;;;;19.38;13.68;;;4.50;99.90;;;;;;5035606;28;20427;-70
2022/05/01 01:40:42;;;;;;;17.90;13.10;;;4.40;99.90;;;;;;5035342;28;20037;-71
2022/05/01 01:43:11;;;;;;;19.33;14.18;;;4.40;99.90;;;;;;5035083;28;20092;-70
2022/05/01 01:45:36;;;;;;;20.25;13.38;;;4.30;99.90;;;;;;5017948;28;20366;-71
2022/05/01 01:48:09;;;;;;;23.73;15.32;;;4.30;99.90;;;;;;5035680;28;20045;-70
2022/05/01 01:50:35;;;;;;;20.70;14.30;;;4.20;99.90;;;;;;5034954;28;20057;-70
2022/05/01 01:53:00;;;;;;;20.98;15.75;;;4.20;99.90;;;;;;5017230;28;20462;-71
2022/05/01 01:55:26;;;;;;;20.38;14.88;;;4.20;99.90;;;;;;5035212;28;20053;-70
2022/05/01 01:57:51;;;;;;;23.08;16.08;;;4.10;99.90;;;;;;5035102;28;20041;-70
2022/05/01 02:00:17;;;;;;;21.95;16.05;;;4.10;99.90;;;;;;5035484;28;20041;-70
2022/05/01 02:02:42;;;;;;;23.25;15.45;;;4.10;99.90;;;;;;5035014;28;20045;-70
2022/05/01 02:05:08;;;;;;;22.73;15.45;;;4.00;99.90;;;;;;5035120;28;20041;-70
2022/05/01 02:07:34;;;;;;;25.55;15.45;;;4.00;99.90;;;;;;5035279;28;20056;-71
2022/05/01 02:10:00;;;;;;;23.88;15.25;;;4.00;99.90;;;;;;5034871;28;20042;-71
2022/05/01 02:12:27;;;;;;;22.27;14.50;;;3.90;99.90;;;;;;5034585;28;20079;-70
2022/05/01 02:14:53;;;;;;;20.70;14.38;;;4.20;99.90;;;;;;5035187;28;20087;-71
2022/05/01 02:17:20;;;;;;;21.63;15.50;;;3.80;99.90;;;;;;5034947;28;20053;-70
2022/05/01 02:19:46;;;;;;;20.05;14.27;;;3.80;99.90;;;;;;5035094;28;20041;-71
2022/05/01 02:22:13;;;;;;;18.90;14.40;;;3.80;99.90;;;;;;5031545;28;20068;-70
2022/05/01 02:24:38;;;;;;;19.83;14.60;;;3.80;99.90;;;;;;5035128;28;20116;-70
2022/05/01 02:27:05;;;;;;;20.38;14.85;;;3.80;99.90;;;;;;5034900;28;20417;-70
2022/05/01 02:29:30;;;;;;;21.58;14.55;;;3.80;99.90;;;;;;5031797;28;20054;-70
2022/05/01 02:31:56;;;;;;;21.45;15.18;;;3.70;99.90;;;;;;5034813;28;20378;-70
2022/05/01 02:34:23;;;;;;;21.50;16.38;;;3.70;99.90;;;;;;5034650;28;20509;-70
2022/05/01 02:36:51;;;;;;;20.00;15.50;;;3.70;99.90;;;;;;5034970;28;20057;-71
2022/05/01 02:39:17;;;;;;;20.55;15.63;;;3.60;99.90;;;;;;5000025;28;20057;-70
2022/05/01 02:41:43;;;;;;;21.75;14.73;;;3.60;99.90;;;;;;5034649;28;20120;-71
2022/05/01 02:44:09;;;;;;;21.75;15.52;;;3.60;99.90;;;;;;5034397;28;20045;-70
2022/05/01 02:46:35;;;;;;;18.45;14.43;;;3.60;99.90;;;;;;5035073;28;20095;-70
2022/05/01 02:49:01;;;;;;;19.45;14.75;;;3.50;99.90;;;;;;5034653;28;20140;-70
2022/05/01 02:51:26;;;;;;;18.40;15.38;;;3.50;99.90;;;;;;5034630;28;20041;-70
2022/05/01 02:53:52;;;;;;;24.33;16.67;;;3.50;99.90;;;;;;5033573;28;20052;-70
2022/05/01 02:56:17;;;;;;;24.08;17.85;;;3.50;99.90;;;;;;5034901;28;20144;-70
2022/05/01 02:58:43;;;;;;;21.92;16.70;;;3.50;99.90;;;;;;5034490;28;20172;-71
2022/05/01 03:01:09;;;;;;;25.90;19.20;;;3.40;99.90;;;;;;5019451;28;20133;-71
2022/05/01 03:03:34;;;;;;;26.38;18.83;;;3.40;99.90;;;;;;5020976;28;20538;-70
2022/05/01 03:06:00;;;;;;;27.75;19.13;;;3.40;99.90;;;;;;5038475;28;20468;-70
2022/05/01 03:08:27;;;;;;;30.75;20.95;;;3.30;99.90;;;;;;5038120;28;20095;-70
2022/05/01 03:10:52;;;;;;;29.05;20.45;;;3.30;99.90;;;;;;5037992;28;20065;-70
2022/05/01 03:13:18;;;;;;;25.88;19.73;;;3.30;99.90;;;;;;5038048;28;20490;-71
2022/05/01 03:15:44;;;;;;;27.92;20.05;;;3.30;99.90;;;;;;5020900;28;20133;-70
2022/05/01 03:23:38;;;;;;;29.95;19.90;;;3.30;99.90;;;;;;5037706;28;20053;-71
2022/05/01 03:26:04;;;;;;;28.00;19.70;;;3.20;99.90;;;;;;5038331;28;20101;-70
2022/05/01 03:28:30;;;;;;;26.25;19.63;;;3.20;99.90;;;;;;5038291;28;20045;-70
2022/05/01 03:30:58;;;;;;;26.98;19.00;;;3.20;99.90;;;;;;5038006;28;20473;-70
2022/05/01 03:33:25;;;;;;;25.90;19.45;;;3.10;99.90;;;;;;5037323;28;20069;-71
2022/05/01 03:35:51;;;;;;;26.63;19.20;;;3.10;99.90;;;;;;5037679;28;20052;-71
2022/05/01 03:38:17;;;;;;;25.65;18.95;;;3.10;99.90;;;;;;5049927;28;20041;-70
2022/05/01 03:40:47;;;;;;;25.30;18.52;;;3.10;99.90;;;;;;5057714;28;20037;-70
2022/05/01 03:43:17;;;;;;;24.73;18.23;;;3.00;99.90;;;;;;5045536;28;20053;-71
2022/05/01 03:45:43;;;;;;;26.05;19.52;;;3.00;99.90;;;;;;5037269;28;20064;-70
2022/05/01 03:48:08;;;;;;;23.92;19.35;;;3.00;99.90;;;;;;5037063;28;20430;-70
2022/05/01 03:50:34;;;;;;;24.42;17.77;;;3.00;99.90;;;;;;5037698;28;20041;-71
2022/05/01 03:53:02;;;;;;;25.02;18.67;;;2.90;99.90;;;;;;5037227;28;20369;-71
2022/05/01 03:55:27;;;;;;;23.42;17.83;;;2.90;99.90;;;;;;5037449;28;20060;-70
2022/05/01 03:57:53;;;;;;;21.98;17.55;;;3.00;99.90;;;;;;5037327;28;20395;-71
2022/05/01 04:00:19;;;;;;;22.52;17.75;;;2.90;99.90;;;;;;5037028;28;20048;-71
2022/05/01 04:02:46;;;;;;;24.83;17.80;;;2.90;99.90;;;;;;5033650;28;20072;-70
2022/05/01 04:05:12;;;;;;;23.38;18.50;;;2.90;99.90;;;;;;5020322;28;20061;-71
2022/05/01 04:07:42;;;;;;;26.63;19.17;;;2.90;99.90;;;;;;5036966;28;20450;-70
2022/05/01 04:10:09;;;;;;;22.52;17.58;;;2.90;99.90;;;;;;5020014;28;20046;-70
2022/05/01 04:12:39;;;;;;;20.90;17.05;;;2.90;99.90;;;;;;5036101;28;20128;-70
2022/05/01 04:15:09;;;;;;;26.55;18.70;;;2.90;99.90;;;;;;5036955;28;20179;-70
2022/05/01 04:17:41;;;;;;;24.73;18.60;;;2.90;99.90;;;;;;5037594;28;20103;-70
2022/05/01 04:20:14;;;;;;;26.38;19.27;;;2.90;99.90;;;;;;5037011;28;20052;-70
2022/05/01 04:22:41;;;;;;;23.23;17.42;;;3.00;99.90;;;;;;5036563;28;20037;-70
2022/05/01 04:25:17;;;;;;;23.15;17.52;;;3.00;99.90;;;;;;5037070;28;20360;-70
2022/05/01 04:27:45;;;;;;;26.48;17.90;;;3.00;99.90;;;;;;5036822;28;20064;-70
2022/05/01 04:30:12;;;;;;;24.92;18.10;;;3.00;99.90;;;;;;5036748;28;20127;-70
2022/05/01 04:32:58;;;;;;;23.92;18.00;;;3.00;99.90;;;;;;5036343;28;20041;-70
2022/05/01 04:35:31;;;;;;;23.83;18.02;;;3.00;99.90;;;;;;5036656;28;20107;-70
2022/05/01 04:38:01;;;;;;;25.98;18.42;;;3.00;99.90;;;;;;5036551;28;20046;-71
2022/05/01 04:40:31;;;;;;;22.88;17.58;;;3.10;99.90;;;;;;5019568;28;20347;-70
2022/05/01 04:43:03;;;;;;;23.27;17.35;;;3.10;99.90;;;;;;5036385;28;20039;-70
2022/05/01 04:45:31;;;;;;;22.67;17.33;;;3.10;99.90;;;;;;5036119;28;20052;-70
2022/05/01 04:47:58;;;;;;;22.52;17.35;;;3.20;99.90;;;;;;5036389;28;20065;-71
2022/05/01 04:50:25;;;;;;;24.38;17.65;;;3.20;99.90;;;;;;5028250;28;20485;-71
2022/05/01 04:52:52;;;;;;;25.17;17.67;;;3.20;99.90;;;;;;5036469;28;20053;-70
2022/05/01 04:55:18;;;;;;;23.55;17.42;;;3.20;99.90;;;;;;5036157;28;20365;-70
2022/05/01 04:57:44;;;;;;;25.70;18.23;;;3.30;99.90;;;;;;5035864;28;20061;-70
2022/05/01 05:00:10;;;;;;;26.40;18.33;;;3.30;99.90;;;;;;5036414;28;20132;-71
2022/05/01 05:02:41;;;;;;;22.30;17.33;;;3.30;99.90;;;;;;5035955;28;20045;-67
2022/05/01 05:05:09;;;;;;;23.08;17.85;;;3.40;99.90;;;;;;5035893;28;20051;-68
2022/05/01 05:07:36;;;;;;;22.95;17.67;;;3.40;99.90;;;;;;5035870;28;20049;-67
2022/05/01 05:10:03;;;;;;;24.02;18.25;;;3.50;99.90;;;;;;5035932;28;20053;-67
2022/05/01 05:12:29;;;;;;;21.90;16.25;;;3.50;99.90;;;;;;5035783;28;20373;-68
2022/05/01 05:14:58;;;;;;;19.73;16.65;;;3.70;99.90;;;;;;5036366;28;20042;-68
2022/05/01 05:17:23;;;;;;;20.02;16.67;;;3.80;99.90;;;;;;5035810;28;20053;-68
2022/05/01 05:19:50;;;;;;;19.25;16.48;;;3.90;99.90;;;;;;5035633;28;20050;-68
2022/05/01 05:22:15;;;;;;;20.33;17.05;;;4.00;99.90;;;;;;5035955;28;20114;-70
2022/05/01 05:24:41;;;;;;;22.92;17.77;;;4.20;99.90;;;;;;5035546;28;20034;-71
2022/05/01 05:27:08;;;;;;;21.60;17.63;;;4.40;99.90;;;;;;5035787;28;20034;-70
2022/05/01 05:29:33;;;;;;;20.95;17.58;;;4.60;99.90;;;;;;5035690;28;20037;-70
2022/05/01 05:31:59;;;;;;;19.98;17.50;;;4.90;99.90;;;;;;5036935;28;20045;-70
2022/05/01 05:34:25;;;;;;;22.45;17.83;;;5.30;99.90;;;;;;5040218;28;20350;-70
2022/05/01 05:36:51;;;;;;;22.17;18.20;;;5.70;99.90;;;;;;5035049;28;20386;-70
2022/05/01 05:39:17;;;;;;;23.13;18.33;;;6.40;99.90;;;;;;5035437;28;20048;-69
2022/05/01 05:41:42;;;;;;;21.67;17.60;;;7.50;99.90;;;;;;5037970;28;20053;-69
2022/05/01 05:44:08;;;;;;;19.10;17.10;;;8.60;99.90;;;;;;5034935;28;20049;-70
2022/05/01 05:46:35;;;;;;;18.27;15.77;;;9.90;99.90;;;;;;5045525;28;20215;-70
2022/05/01 05:49:01;;;;;;;16.73;14.30;;;10.90;99.90;;;;;;5018290;28;20061;-70
2022/05/01 05:51:26;;;;;;;15.20;13.52;;;11.80;99.90;;;;;;5037269;28;20048;-70
2022/05/01 05:53:53;;;;;;;14.68;12.82;;;12.50;99.90;;;;;;5055374;28;20045;-70
2022/05/01 05:56:20;;;;;;;16.42;12.20;;;13.10;99.90;;;;;;5054256;28;20053;-70
2022/05/01 05:58:45;;;;;;;13.75;12.30;;;13.40;99.90;;;;;;5032581;28;20049;-70
2022/05/01 06:01:12;;;;;;;15.57;12.70;;;13.70;99.90;;;;;;5035274;28;20060;-69
2022/05/01 06:03:38;;;;;;;16.40;13.05;;;13.80;99.90;;;;;;5034940;28;20046;-71
2022/05/01 06:06:03;;;;;;;14.95;12.23;;;14.10;99.90;;;;;;5035398;28;20052;-70
2022/05/01 06:08:29;;;;;;;12.77;11.38;;;14.20;99.90;;;;;;5034665;28;20449;-71
2022/05/01 06:10:55;;;;;;;12.00;10.70;;;14.50;99.90;;;;;;5035199;28;20470;-71
2022/05/01 06:13:20;;;;;;;13.85;10.40;;;14.60;99.90;;;;;;5034902;28;20038;-71
2022/05/01 06:15:47;;;;;;;11.85;10.40;;;15.00;99.90;;;;;;5034947;28;20413;-71
2022/05/01 06:18:13;;;;;;;12.07;10.63;;;15.30;99.90;;;;;;5034265;28;20045;-71
2022/05/01 06:20:39;;;;;;;13.32;9.80;;;15.90;99.90;;;;;;5035224;28;20438;-71
2022/05/01 06:23:04;;;;;;;11.32;8.77;;;16.50;99.90;;;;;;5034786;28;20115;-71
2022/05/01 06:25:30;;;;;;;9.93;8.43;;;16.70;99.90;;;;;;5035018;28;20033;-71
2022/05/01 06:27:56;;;;;;;10.70;8.25;;;17.00;99.90;;;;;;5034623;28;20116;-71
2022/05/01 06:30:21;;;;;;;11.43;8.80;;;17.50;99.90;;;;;;5034849;28;20099;-71
2022/05/01 06:32:48;;;;;;;8.85;7.75;;;17.70;99.90;;;;;;5034350;28;20037;-70
2022/05/01 06:35:15;;;;;;;9.02;7.88;;;18.00;99.90;;;;;;5035285;28;20458;-70
2022/05/01 06:37:41;;;;;;;12.10;7.55;;;18.10;99.80;;;;;;5038776;28;20056;-70
2022/05/01 06:40:07;;;;;;;9.05;7.43;;;18.00;99.30;;;;;;5038906;28;20045;-70
2022/05/01 06:42:33;;;;;;;9.65;8.13;;;17.90;99.60;;;;;;5038837;28;20061;-69
2022/05/01 06:44:59;;;;;;;10.43;7.20;;;17.80;99.00;;;;;;5038734;28;20041;-70
2022/05/01 06:47:25;;;;;;;11.27;7.70;;;18.20;99.00;;;;;;5038459;28;20124;-71
2022/05/01 06:49:50;;;;;;;9.25;7.60;;;18.30;98.30;;;;;;5021745;28;20049;-71
2022/05/01 06:52:23;;;;;;;8.35;6.93;;;17.80;98.80;;;;;;5038857;28;20544;-71
2022/05/01 06:54:53;;;;;;;10.38;7.70;;;16.90;97.90;;;;;;5038360;28;20053;-72
2022/05/01 06:57:19;;;;;;;9.52;7.45;;;16.30;99.90;;;;;;5038664;28;20436;-71
2022/05/01 06:59:44;;;;;;;8.18;6.75;;;15.80;99.90;;;;;;5038523;28;20049;-72
2022/05/01 07:02:10;;;;;;;8.27;6.63;;;15.00;99.90;;;;;;5038462;28;20103;-71
2022/05/01 07:04:35;;;;;;;8.88;7.05;;;14.80;99.90;;;;;;5038114;28;20152;-71
2022/05/01 07:07:01;;;;;;;10.18;6.55;;;14.70;99.90;;;;;;5020634;28;20056;-72
2022/05/01 07:09:27;;;;;;;9.07;6.72;;;14.80;99.90;;;;;;5038415;28;20462;-71
2022/05/01 07:11:52;;;;;;;9.18;6.45;;;15.20;99.90;;;;;;5038476;28;20132;-72
2022/05/01 07:14:18;;;;;;;7.72;4.90;;;15.80;99.90;;;;;;5038337;28;20125;-71
2022/05/01 07:16:44;;;;;;;9.43;5.95;;;16.50;99.90;;;;;;5037766;28;20103;-71
2022/05/01 07:19:09;;;;;;;7.50;5.72;;;16.60;99.70;;;;;;5038045;28;20362;-72
2022/05/01 07:21:35;;;;;;;7.35;5.20;;;17.40;99.40;;;;;;5038086;28;20045;-71
2022/05/01 07:24:00;;;;;;;7.53;5.38;;;17.80;98.60;;;;;;5038526;28;20042;-73
2022/05/01 07:26:27;;;;;;;8.07;4.57;;;17.60;97.30;;;;;;5038201;28;20049;-72
2022/05/01 07:28:52;;;;;;;10.02;4.82;;;17.30;97.20;;;;;;5037724;28;20054;-71
2022/05/01 07:31:18;;;;;;;8.43;5.80;;;15.90;97.30;;;;;;5037841;28;20057;-71
2022/05/01 07:33:43;;;;;;;7.13;5.35;;;16.00;99.20;;;;;;5037577;28;20157;-71
2022/05/01 07:36:09;;;;;;;8.48;5.93;;;16.60;99.40;;;;;;5038365;28;20049;-69
2022/05/01 07:38:34;;;;;;;9.63;6.20;;;16.90;98.50;;;;;;5037213;28;20493;-74
2022/05/01 07:41:00;;;;;;;9.13;5.40;;;16.60;98.90;;;;;;5037467;28;20046;-72
2022/05/01 07:43:26;;;;;;;9.32;5.82;;;16.20;98.70;;;;;;5037585;28;20099;-72
2022/05/01 07:45:51;;;;;;;8.48;5.35;;;15.60;99.90;;;;;;5037418;28;20049;-72
2022/05/01 07:48:17;;;;;;;7.85;5.55;;;15.60;99.90;;;;;;5018639;28;20053;-71
2022/05/01 07:50:42;;;;;;;9.02;5.38;;;15.40;99.90;;;;;;5037465;28;20053;-70
2022/05/01 07:53:08;;;;;;;7.20;4.80;;;15.20;99.90;;;;;;5020143;28;20417;-71
2022/05/01 07:55:33;;;;;;;8.15;5.30;;;14.60;99.90;;;;;;5037159;28;20064;-71
2022/05/01 07:57:59;;;;;;;6.93;5.07;;;14.20;99.90;;;;;;5037310;28;20054;-71
2022/05/01 08:00:25;;;;;;;8.48;4.57;;;13.90;99.90;;;;;;5036915;28;20090;-71
2022/05/01 08:05:35;;;;;;;9.15;4.18;;;13.50;99.90;;;;;;5037367;28;20057;-71
2022/05/01 08:08:01;;;;;;;8.45;5.10;;;13.50;99.90;;;;;;5036873;28;20048;-70
2022/05/01 08:10:27;;;;;;;7.68;4.65;;;13.30;99.90;;;;;;5036412;28;20045;-70
2022/05/01 08:12:52;;;;;;;7.10;5.07;;;13.20;99.90;;;;;;5036759;28;20053;-70
2022/05/01 08:15:19;;;;;;;6.55;4.43;;;13.40;99.90;;;;;;5036923;28;20042;-71
2022/05/01 08:17:45;;;;;;;6.88;4.55;;;14.20;99.90;;;;;;5036635;28;20059;-70
2022/05/01 08:23:09;;;;;;;6.70;4.57;;;15.70;99.90;;;;;;5036858;28;20132;-70
2022/05/01 08:25:37;;;;;;;7.47;4.70;;;16.70;98.20;;;;;;5036933;28;20053;-71
2022/05/01 08:28:03;;;;;;;7.40;4.60;;;16.80;95.20;;;;;;5036633;28;20124;-72
2022/05/01 08:30:29;;;;;;;6.22;4.38;;;16.60;95.70;;;;;;5036793;28;20140;-71
2022/05/01 08:32:55;;;;;;;5.47;3.83;;;17.20;97.80;;;;;;5036591;28;20045;-72
2022/05/01 08:35:21;;;;;;;6.57;3.85;;;17.60;96.80;;;;;;5036638;28;20316;-72
2022/05/01 08:37:46;;;;;;;6.30;3.88;;;18.00;95.80;;;;;;5036296;28;20095;-72
2022/05/01 08:40:12;;;;;;;7.20;4.70;;;18.30;94.60;;;;;;5036347;28;20111;-72
2022/05/01 08:42:39;;;;;;;7.53;4.10;;;18.30;92.60;;;;;;5019238;28;20056;-71
2022/05/01 08:45:09;;;;;;;7.25;4.45;;;18.30;91.90;;;;;;5002780;28;20085;-69
2022/05/01 08:47:46;;;;;;;7.80;3.85;;;18.30;91.70;;;;;;5019060;28;20045;-68
2022/05/01 08:50:12;;;;;;;6.47;4.20;;;18.20;91.70;;;;;;5018874;28;20038;-72
2022/05/01 08:52:39;;;;;;;6.65;3.72;;;17.60;92.30;;;;;;5036198;28;20136;-72
2022/05/01 08:55:06;;;;;;;8.07;4.10;;;16.90;93.40;;;;;;5040204;28;20192;-71
2022/05/01 08:57:33;;;;;;;7.10;4.28;;;16.20;94.50;;;;;;5035482;28;20041;-72
2022/05/01 08:59:59;;;;;;;6.25;3.90;;;15.70;95.70;;;;;;5019071;28;20061;-72
2022/05/01 09:02:25;;;;;;;6.78;4.22;;;15.70;95.20;;;;;;5033127;28;20187;-70
2022/05/01 09:04:51;;;;;;;7.03;4.43;;;15.30;95.70;;;;;;5035685;28;20159;-70
2022/05/01 09:07:16;;;;;;;7.07;4.30;;;14.80;96.00;;;;;;5018746;28;20466;-71
2022/05/01 09:09:42;;;;;;;6.05;4.65;;;14.40;97.00;;;;;;5023624;28;20127;-69
2022/05/01 09:14:54;;;;;;;7.10;4.35;;;14.00;97.70;;;;;;5028918;28;20061;-69
2022/05/01 09:17:21;;;;;;;5.93;4.10;;;13.80;98.70;;;;;;5030164;28;20378;-70
2022/05/01 09:19:50;;;;;;;6.78;3.70;;;13.70;98.90;;;;;;5031649;28;20056;-69
2022/05/01 09:22:17;;;;;;;8.93;3.70;;;13.80;98.80;;;;;;5030791;28;20060;-70
2022/05/01 09:24:43;;;;;;;5.68;3.33;;;14.00;98.40;;;;;;5032484;28;20470;-72
2022/05/01 09:27:30;;;;;;;5.68;3.70;;;14.20;97.70;;;;;;5031032;28;20060;-71
2022/05/01 09:30:14;;;;;;;6.40;3.55;;;14.40;96.90;;;;;;5031504;28;20041;-70
2022/05/01 09:32:42;;;;;;;6.88;4.00;;;14.80;97.20;;;;;;5023969;28;20474;-68
2022/05/01 09:35:15;;;;;;;7.38;4.05;;;15.20;97.40;;;;;;5009785;28;20037;-71
2022/05/01 09:37:42;;;;;;;5.75;3.47;;;15.60;96.80;;;;;;5026905;28;20190;-72
2022/05/01 09:40:09;;;;;;;5.88;3.35;;;15.90;96.90;;;;;;5024131;28;20034;-71
2022/05/01 09:42:36;;;;;;;7.85;3.40;;;15.80;95.40;;;;;;5024790;28;20378;-71
2022/05/01 09:45:09;;;;;;;6.55;3.50;;;15.90;95.20;;;;;;5024787;28;20088;-72
2022/05/01 09:47:38;;;;;;;;;;;16.00;94.80;;;;;;5022331;28;20041;-71
2022/05/01 09:50:05;;;;;;;10.07;4.10;;;16.20;95.60;;;;;;5005985;28;19964;-71
2022/05/01 09:52:54;;;;;;;6.25;3.28;;;16.10;95.60;;;;;;5031939;28;20073;-71
2022/05/01 09:55:20;;;;;;;7.57;3.55;;;16.20;94.30;;;;;;5024280;28;20061;-71
2022/05/01 09:57:46;;;;;;;6.60;3.70;;;16.30;95.20;;;;;;5029645;28;20052;-71
2022/05/01 10:00:12;;;;;;;7.75;3.42;;;16.20;93.60;;;;;;5033903;28;20124;-71
2022/05/01 10:02:38;;;;;;;6.82;3.88;;;16.10;95.40;;;;;;5024313;28;20050;-70
2022/05/01 10:05:07;;;;;;;6.63;3.53;;;16.20;95.30;;;;;;4947883;29;20134;-72
2022/05/01 10:07:39;;;;;;;5.22;3.58;;;16.40;95.70;;;;;;4945533;29;20051;-72
2022/05/01 10:10:09;;;;;;;8.10;4.45;;;16.60;96.10;;;;;;4943601;29;20060;-72
2022/05/01 10:12:43;;;;;;;9.68;4.70;;;16.90;96.10;;;;;;4945098;29;20070;-71
2022/05/01 10:15:10;;;;;;;6.75;4.07;;;16.80;95.60;;;;;;4942749;29;20044;-72
2022/05/01 10:17:38;;;;;;;7.47;4.75;;;16.50;94.70;;;;;;4944593;29;20047;-72
2022/05/01 10:20:04;;;;;;;5.47;3.53;;;16.20;93.50;;;;;;4946091;29;20101;-72
2022/05/01 10:22:34;;;;;;;8.88;3.70;;;16.10;94.90;;;;;;4939285;29;20082;-72
2022/05/01 10:25:02;;;;;;;5.85;3.30;;;16.40;94.90;;;;;;4951316;29;20059;-72
2022/05/01 10:27:40;;;;;;;7.55;3.40;;;16.50;93.10;;;;;;4943645;29;20098;-72
2022/05/01 10:33:17;;;;;;;7.72;3.60;;;16.20;92.10;;;;;;4941922;29;20058;-72
2022/05/01 10:36:22;;;;;;;5.45;3.13;;;15.90;92.30;;;;;;4972632;28;20463;-72
2022/05/01 10:39:10;;;;;;;5.53;3.50;;;16.10;92.80;;;;;;5009988;28;20369;-71
2022/05/01 10:41:44;;;;;;;6.60;3.42;;;16.10;92.30;;;;;;5019200;28;20034;-71
2022/05/01 10:44:29;;;;;;;7.90;3.22;;;16.10;91.40;;;;;;5019287;28;20070;-71
2022/05/01 10:47:03;;;;;;;4.82;2.80;;;16.40;91.20;;;;;;5027228;28;20513;-72
2022/05/01 10:49:39;;;;;;;9.52;3.92;;;16.40;91.70;;;;;;5015816;28;20053;-72
2022/05/01 10:52:24;;;;;;;6.10;3.13;;;16.70;90.30;;;;;;5016920;28;20092;-72
2022/05/01 10:55:04;;;;;;;8.27;3.45;;;16.90;90.70;;;;;;5020686;28;20084;-71
2022/05/01 10:57:30;;;;;;;7.45;3.50;;;16.70;90.10;;;;;;5024139;28;20041;-72
2022/05/01 11:00:12;;;;;;;6.35;3.30;;;16.70;91.30;;;;;;5022987;28;20046;-71
2022/05/01 11:02:39;;;;;;;5.38;3.20;;;16.80;89.80;;;;;;5019616;28;20092;-71
2022/05/01 11:05:09;;;;;;;5.88;3.10;;;16.40;84.70;;;;;;5023180;28;20057;-71
2022/05/01 11:07:37;;;;;;;4.80;3.30;;;16.60;85.80;;;;;;5033476;28;20045;-72
2022/05/01 11:10:05;;;;;;;4.13;2.90;;;16.70;87.40;;;;;;5033267;28;20076;-72
2022/05/01 11:12:32;;;;;;;6.95;2.75;;;16.50;87.00;;;;;;5033666;28;20053;-74
2022/05/01 11:15:06;;;;;;;7.35;3.50;;;16.80;88.70;;;;;;5033111;28;20045;-72
2022/05/01 11:17:42;;;;;;;6.00;3.03;;;16.60;82.90;;;;;;5018983;28;20378;-71
2022/05/01 11:20:14;;;;;;;5.40;3.10;;;16.60;82.50;;;;;;5022058;28;20104;-72
2022/05/01 11:22:41;;;;;;;7.15;3.13;;;16.80;87.50;;;;;;5019346;28;20132;-72
2022/05/01 11:25:12;;;;;;;7.10;3.00;;;16.70;85.00;;;;;;5026869;28;20045;-72
2022/05/01 11:27:56;;;;;;;3.85;2.90;;;16.70;84.40;;;;;;5032840;28;20114;-72
2022/05/01 11:30:27;;;;;;;5.72;3.38;;;16.60;86.40;;;;;;5011147;28;20049;-72
2022/05/01 11:33:10;;;;;;;5.47;3.25;;;16.70;89.60;;;;;;5027167;28;20378;-72
2022/05/01 11:36:02;;;;;;;6.15;3.08;;;16.90;85.00;;;;;;5029737;28;20095;-70
2022/05/01 11:38:37;;;;;;;5.43;2.88;;;17.10;86.60;;;;;;5026781;28;20466;-71
2022/05/01 11:41:04;;;;;;;4.45;2.88;;;17.20;88.70;;;;;;4983408;28;20060;-72
2022/05/01 11:43:31;;;;;;;5.63;3.45;;;17.60;89.60;;;;;;5029572;28;20073;-71
2022/05/01 11:45:58;;;;;;;5.30;3.20;;;17.20;82.40;;;;;;5026515;28;20041;-69
2022/05/01 11:48:25;;;;;;;6.32;2.90;;;17.30;84.50;;;;;;5027373;28;20049;-71
2022/05/01 11:50:52;;;;;;;6.63;3.45;;;17.50;83.90;;;;;;5008863;28;20057;-69
2022/05/01 11:53:22;;;;;;;5.18;3.30;;;17.30;80.40;;;;;;5026004;28;20106;-68
2022/05/01 12:04:25;;;;;;;5.93;3.08;;;18.10;79.20;;;;;;5036992;28;20049;-71
2022/05/01 12:06:58;;;;;;;7.15;3.38;;;18.20;81.20;;;;;;5037316;28;20088;-73
2022/05/01 12:09:28;;;;;;;6.18;3.90;;;18.60;79.50;;;;;;5019827;28;20133;-68
2022/05/01 12:11:54;;;;;;;5.28;3.10;;;18.60;77.40;;;;;;5037196;28;20045;-69
2022/05/01 12:14:20;;;;;;;4.57;3.28;;;18.50;78.40;;;;;;5036292;28;20037;-71
2022/05/01 12:16:46;;;;;;;5.45;3.22;;;18.00;75.10;;;;;;5040101;28;20040;-69
2022/05/01 12:19:13;;;;;;;5.70;3.30;;;17.80;74.80;;;;;;5045339;28;20092;-69
2022/05/01 12:21:39;;;;;;;7.10;3.22;;;18.00;77.90;;;;;;5027654;28;20168;-70
2022/05/01 12:24:06;;;;;;;4.50;2.78;;;18.00;78.50;;;;;;5022301;28;20137;-69
2022/05/01 12:26:36;;;;;;;8.05;3.53;;;17.90;77.30;;;;;;5029544;28;20033;-69
2022/05/01 12:29:02;;;;;;;5.38;3.30;;;17.90;77.30;;;;;;5035308;28;20049;-69
2022/05/01 12:31:29;;;;;;;8.48;5.28;;;17.60;77.30;;;;;;5019252;28;20064;-69
2022/05/01 12:33:55;;;;;;;5.90;3.08;;;17.70;79.30;;;;;;5035563;28;20079;-73
2022/05/01 12:36:25;;;;;;;5.75;3.75;;;17.60;75.30;;;;;;5036197;28;20132;-72
2022/05/01 12:39:12;;;;;;;6.55;4.72;;;17.40;75.30;;;;;;5032968;28;20184;-68
2022/05/01 12:44:22;;;;;;;4.78;3.17;;;17.10;76.60;;;;;;5035880;28;20049;-67
2022/05/01 12:46:52;;;;;;;21.48;19.35;;;17.00;77.30;;;;;;5019303;28;20041;-70
2022/05/01 12:49:26;;;;;;;10.77;6.45;;;16.90;76.60;;;;;;5022161;28;20041;-69
2022/05/01 12:51:51;;;;;;;9.20;4.50;;;16.90;78.30;;;;;;5032983;28;20058;-69
2022/05/01 12:54:17;;;;;;;6.30;3.70;;;17.00;77.00;;;;;;5028831;28;20200;-70
2022/05/01 12:56:45;;;;;;;6.30;3.47;;;17.00;74.50;;;;;;5030299;28;20062;-69
2022/05/01 12:59:30;;;;;;;5.93;3.03;;;16.90;77.50;;;;;;5035631;28;20084;-70
2022/05/01 13:01:58;;;;;;;7.85;3.45;;;17.30;81.80;;;;;;5035755;28;20056;-70
2022/05/01 13:04:25;;;;;;;6.85;5.00;;;17.80;75.90;;;;;;5033727;28;20106;-69
2022/05/01 13:06:51;;;;;;;6.47;4.28;;;18.00;77.40;;;;;;5018021;28;20045;-71
2022/05/01 13:09:17;;;;;;;14.23;11.93;;;18.10;74.10;;;;;;5035526;28;20041;-72
2022/05/01 13:12:06;;;;;;;4.95;3.00;;;18.00;75.70;;;;;;5035420;28;20068;-71
2022/05/01 13:14:33;;;;;;;4.78;2.72;;;18.00;75.60;;;;;;5035776;28;20057;-73
2022/05/01 13:17:12;;;;;;;4.47;2.78;;;18.10;76.80;;;;;;5035561;28;20117;-72
2022/05/01 13:19:39;;;;;;;4.60;2.90;;;18.20;73.80;;;;;;5018163;28;20064;-73
2022/05/01 13:22:06;;;;;;;4.45;3.15;;;18.20;74.80;;;;;;5035561;28;20049;-72